sensor_id;sensor_type;location;lat;lon;timestamp;temperature;humidity
34472;DHT22;20710;49.976;19.836;2022-08-05T00:01:42;16.54;78.84
34472;DHT22;20710;49.976;19.836;2022-08-05T00:07:50;16.63;78.62
34472;DHT22;20710;49.976;19.836;2022-08-05T00:13:57;16.66;78.94
34472;DHT22;20710;49.976;19.836;2022-08-05T00:20:02;16.69;78.10
34472;DHT22;20710;49.976;19.836;2022-08-05T00:26:39;16.67;78.24
34472;DHT22;20710;49.976;19.836;2022-08-05T00:39:45;16.58;78.94
34472;DHT22;20710;49.976;19.836;2022-08-05T00:45:47;16.46;79.12
34472;DHT22;20710;49.976;19.836;2022-08-05T00:51:52;16.49;78.67
34472;DHT22;20710;49.976;19.836;2022-08-05T00:57:54;16.55;79.00
34472;DHT22;20710;49.976;19.836;2022-08-05T01:03:55;16.48;79.04
34472;DHT22;20710;49.976;19.836;2022-08-05T01:09:56;16.48;78.70
34472;DHT22;20710;49.976;19.836;2022-08-05T01:16:01;16.56;78.71
34472;DHT22;20710;49.976;19.836;2022-08-05T01:22:16;16.56;78.71
34472;DHT22;20710;49.976;19.836;2022-08-05T01:28:25;16.55;78.72
34472;DHT22;20710;49.976;19.836;2022-08-05T01:34:42;16.49;79.28
34472;DHT22;20710;49.976;19.836;2022-08-05T01:40:46;16.45;78.71
34472;DHT22;20710;49.976;19.836;2022-08-05T01:53:23;16.17;79.47
34472;DHT22;20710;49.976;19.836;2022-08-05T01:59:26;16.13;79.25
34472;DHT22;20710;49.976;19.836;2022-08-05T02:05:32;16.17;79.35
34472;DHT22;20710;49.976;19.836;2022-08-05T02:12:03;16.10;79.75
34472;DHT22;20710;49.976;19.836;2022-08-05T02:18:22;16.03;79.80
34472;DHT22;20710;49.976;19.836;2022-08-05T02:24:33;15.94;80.05
34472;DHT22;20710;49.976;19.836;2022-08-05T02:30:43;15.93;80.21
34472;DHT22;20710;49.976;19.836;2022-08-05T02:37:07;15.96;79.86
34472;DHT22;20710;49.976;19.836;2022-08-05T02:43:15;15.89;80.48
34472;DHT22;20710;49.976;19.836;2022-08-05T02:49:31;15.70;80.91
34472;DHT22;20710;49.976;19.836;2022-08-05T02:55:33;15.54;81.22
34472;DHT22;20710;49.976;19.836;2022-08-05T03:02:01;15.44;81.50
34472;DHT22;20710;49.976;19.836;2022-08-05T03:08:11;15.33;81.89
34472;DHT22;20710;49.976;19.836;2022-08-05T03:14:13;15.22;82.10
34472;DHT22;20710;49.976;19.836;2022-08-05T03:20:14;15.14;82.26
34472;DHT22;20710;49.976;19.836;2022-08-05T03:26:15;15.11;82.63
34472;DHT22;20710;49.976;19.836;2022-08-05T03:32:26;15.06;82.97
34472;DHT22;20710;49.976;19.836;2022-08-05T03:38:41;15.00;83.13
34472;DHT22;20710;49.976;19.836;2022-08-05T03:44:43;14.97;83.29
34472;DHT22;20710;49.976;19.836;2022-08-05T03:51:19;14.96;83.60
34472;DHT22;20710;49.976;19.836;2022-08-05T03:57:28;15.00;83.40
34472;DHT22;20710;49.976;19.836;2022-08-05T04:03:45;15.22;82.74
34472;DHT22;20710;49.976;19.836;2022-08-05T04:09:50;15.47;82.01
34472;DHT22;20710;49.976;19.836;2022-08-05T04:15:52;15.55;82.20
34472;DHT22;20710;49.976;19.836;2022-08-05T04:21:54;15.65;82.28
34472;DHT22;20710;49.976;19.836;2022-08-05T04:27:55;15.72;82.55
34472;DHT22;20710;49.976;19.836;2022-08-05T04:34:00;15.84;82.24
34472;DHT22;20710;49.976;19.836;2022-08-05T04:40:05;16.04;81.79
34472;DHT22;20710;49.976;19.836;2022-08-05T04:46:07;16.24;81.66
34472;DHT22;20710;49.976;19.836;2022-08-05T04:52:08;16.42;81.68
34472;DHT22;20710;49.976;19.836;2022-08-05T04:58:19;16.54;81.63
34472;DHT22;20710;49.976;19.836;2022-08-05T05:04:37;16.65;81.61
34472;DHT22;20710;49.976;19.836;2022-08-05T05:10:45;16.82;81.37
34472;DHT22;20710;49.976;19.836;2022-08-05T05:17:00;17.00;81.07
34472;DHT22;20710;49.976;19.836;2022-08-05T05:23:16;17.17;81.12
34472;DHT22;20710;49.976;19.836;2022-08-05T05:29:17;17.28;81.23
34472;DHT22;20710;49.976;19.836;2022-08-05T05:35:18;17.46;80.79
34472;DHT22;20710;49.976;19.836;2022-08-05T05:41:22;17.69;80.81
34472;DHT22;20710;49.976;19.836;2022-08-05T05:47:23;17.94;81.04
34472;DHT22;20710;49.976;19.836;2022-08-05T05:53:31;18.18;80.65
34472;DHT22;20710;49.976;19.836;2022-08-05T05:59:34;18.45;80.51
34472;DHT22;20710;49.976;19.836;2022-08-05T06:05:51;18.74;79.90
34472;DHT22;20710;49.976;19.836;2022-08-05T06:11:55;19.04;79.33
34472;DHT22;20710;49.976;19.836;2022-08-05T06:18:00;19.35;79.12
34472;DHT22;20710;49.976;19.836;2022-08-05T06:24:05;19.70;78.54
34472;DHT22;20710;49.976;19.836;2022-08-05T06:43:19;20.94;77.04
34472;DHT22;20710;49.976;19.836;2022-08-05T06:49:36;21.22;76.04
34472;DHT22;20710;49.976;19.836;2022-08-05T06:55:42;21.50;75.32
34472;DHT22;20710;49.976;19.836;2022-08-05T07:01:46;21.91;75.37
34472;DHT22;20710;49.976;19.836;2022-08-05T07:07:48;22.35;74.19
34472;DHT22;20710;49.976;19.836;2022-08-05T07:14:01;22.60;73.08
34472;DHT22;20710;49.976;19.836;2022-08-05T07:20:47;22.94;72.21
34472;DHT22;20710;49.976;19.836;2022-08-05T07:26:54;23.18;70.64
34472;DHT22;20710;49.976;19.836;2022-08-05T07:33:05;23.56;70.19
34472;DHT22;20710;49.976;19.836;2022-08-05T07:39:08;24.01;69.85
34472;DHT22;20710;49.976;19.836;2022-08-05T07:51:48;25.05;69.05
34472;DHT22;20710;49.976;19.836;2022-08-05T07:57:59;25.74;67.89
34472;DHT22;20710;49.976;19.836;2022-08-05T08:04:00;26.33;66.39
34472;DHT22;20710;49.976;19.836;2022-08-05T08:10:04;26.71;64.52
34472;DHT22;20710;49.976;19.836;2022-08-05T08:16:07;26.99;63.07
34472;DHT22;20710;49.976;19.836;2022-08-05T08:22:09;27.33;63.17
34472;DHT22;20710;49.976;19.836;2022-08-05T08:28:11;27.68;61.58
34472;DHT22;20710;49.976;19.836;2022-08-05T08:34:12;27.98;61.12
34472;DHT22;20710;49.976;19.836;2022-08-05T08:40:14;28.22;60.23
34472;DHT22;20710;49.976;19.836;2022-08-05T08:46:19;28.24;59.09
34472;DHT22;20710;49.976;19.836;2022-08-05T08:52:28;28.33;58.28
34472;DHT22;20710;49.976;19.836;2022-08-05T08:58:42;28.46;57.11
34472;DHT22;20710;49.976;19.836;2022-08-05T09:04:45;28.47;57.45
34472;DHT22;20710;49.976;19.836;2022-08-05T09:10:47;28.54;56.25
34472;DHT22;20710;49.976;19.836;2022-08-05T09:16:51;28.95;56.38
34472;DHT22;20710;49.976;19.836;2022-08-05T09:23:11;29.36;56.18
34472;DHT22;20710;49.976;19.836;2022-08-05T09:29:50;29.74;54.39
34472;DHT22;20710;49.976;19.836;2022-08-05T09:35:26;30.24;53.07
34472;DHT22;20710;49.976;19.836;2022-08-05T09:41:28;30.81;52.19
34472;DHT22;20710;49.976;19.836;2022-08-05T09:47:30;31.27;50.58
34472;DHT22;20710;49.976;19.836;2022-08-05T09:53:48;31.82;48.75
34472;DHT22;20710;49.976;19.836;2022-08-05T09:59:49;32.51;46.99
34472;DHT22;20710;49.976;19.836;2022-08-05T10:06:04;33.25;43.73
34472;DHT22;20710;49.976;19.836;2022-08-05T10:12:08;33.57;44.20
34472;DHT22;20710;49.976;19.836;2022-08-05T10:18:16;33.81;43.07
34472;DHT22;20710;49.976;19.836;2022-08-05T10:24:20;33.98;43.13
34472;DHT22;20710;49.976;19.836;2022-08-05T10:30:21;34.15;41.50
34472;DHT22;20710;49.976;19.836;2022-08-05T10:36:23;34.44;40.75
34472;DHT22;20710;49.976;19.836;2022-08-05T10:42:27;35.01;40.82
34472;DHT22;20710;49.976;19.836;2022-08-05T10:48:38;35.32;38.95
34472;DHT22;20710;49.976;19.836;2022-08-05T10:55:04;35.37;38.08
34472;DHT22;20710;49.976;19.836;2022-08-05T11:01:15;35.39;35.87
34472;DHT22;20710;49.976;19.836;2022-08-05T11:07:16;35.32;34.72
34472;DHT22;20710;49.976;19.836;2022-08-05T11:13:39;35.59;35.64
34472;DHT22;20710;49.976;19.836;2022-08-05T11:19:44;35.92;34.97
34472;DHT22;20710;49.976;19.836;2022-08-05T11:32:28;36.52;34.95
34472;DHT22;20710;49.976;19.836;2022-08-05T11:44:47;36.42;34.94
34472;DHT22;20710;49.976;19.836;2022-08-05T11:50:50;36.33;36.21
34472;DHT22;20710;49.976;19.836;2022-08-05T11:56:54;36.29;34.53
34472;DHT22;20710;49.976;19.836;2022-08-05T12:02:56;35.92;33.54
34472;DHT22;20710;49.976;19.836;2022-08-05T12:09:03;35.22;32.40
34472;DHT22;20710;49.976;19.836;2022-08-05T12:15:06;34.46;35.36
34472;DHT22;20710;49.976;19.836;2022-08-05T12:21:16;34.02;35.11
34472;DHT22;20710;49.976;19.836;2022-08-05T12:27:27;33.79;37.39
34472;DHT22;20710;49.976;19.836;2022-08-05T12:33:26;33.50;35.87
34472;DHT22;20710;49.976;19.836;2022-08-05T12:39:28;33.26;37.12
34472;DHT22;20710;49.976;19.836;2022-08-05T12:45:29;33.06;38.42
34472;DHT22;20710;49.976;19.836;2022-08-05T12:57:54;32.51;37.50
34472;DHT22;20710;49.976;19.836;2022-08-05T13:03:56;32.30;37.59
34472;DHT22;20710;49.976;19.836;2022-08-05T13:10:14;32.09;36.66
34472;DHT22;20710;49.976;19.836;2022-08-05T13:16:18;31.93;37.48
34472;DHT22;20710;49.976;19.836;2022-08-05T13:22:21;31.86;38.51
34472;DHT22;20710;49.976;19.836;2022-08-05T13:28:23;31.71;39.53
34472;DHT22;20710;49.976;19.836;2022-08-05T13:34:25;31.55;39.88
34472;DHT22;20710;49.976;19.836;2022-08-05T13:40:26;31.50;39.53
34472;DHT22;20710;49.976;19.836;2022-08-05T13:46:31;31.43;41.22
34472;DHT22;20710;49.976;19.836;2022-08-05T13:52:33;31.38;39.56
34472;DHT22;20710;49.976;19.836;2022-08-05T13:58:34;31.34;40.98
34472;DHT22;20710;49.976;19.836;2022-08-05T14:04:44;31.23;40.93
34472;DHT22;20710;49.976;19.836;2022-08-05T14:11:01;31.17;41.36
34472;DHT22;20710;49.976;19.836;2022-08-05T14:17:05;31.15;41.56
34472;DHT22;20710;49.976;19.836;2022-08-05T14:23:07;31.06;41.51
34472;DHT22;20710;49.976;19.836;2022-08-05T14:29:08;31.00;41.88
34472;DHT22;20710;49.976;19.836;2022-08-05T14:35:10;30.92;42.15
34472;DHT22;20710;49.976;19.836;2022-08-05T14:41:12;30.89;42.69
34472;DHT22;20710;49.976;19.836;2022-08-05T14:47:13;30.85;43.06
34472;DHT22;20710;49.976;19.836;2022-08-05T14:53:14;30.82;42.55
34472;DHT22;20710;49.976;19.836;2022-08-05T14:59:16;30.78;42.61
34472;DHT22;20710;49.976;19.836;2022-08-05T15:05:18;30.75;42.34
34472;DHT22;20710;49.976;19.836;2022-08-05T15:11:19;30.68;43.02
34472;DHT22;20710;49.976;19.836;2022-08-05T15:17:21;30.57;43.01
34472;DHT22;20710;49.976;19.836;2022-08-05T15:23:22;30.47;43.23
34472;DHT22;20710;49.976;19.836;2022-08-05T15:29:23;30.40;43.02
34472;DHT22;20710;49.976;19.836;2022-08-05T15:35:26;30.33;43.58
34472;DHT22;20710;49.976;19.836;2022-08-05T15:41:27;30.24;44.43
34472;DHT22;20710;49.976;19.836;2022-08-05T15:47:28;30.20;44.10
34472;DHT22;20710;49.976;19.836;2022-08-05T15:53:30;30.13;43.83
34472;DHT22;20710;49.976;19.836;2022-08-05T15:59:31;30.06;44.34
34472;DHT22;20710;49.976;19.836;2022-08-05T16:05:33;29.95;44.57
34472;DHT22;20710;49.976;19.836;2022-08-05T16:11:37;29.89;44.07
34472;DHT22;20710;49.976;19.836;2022-08-05T16:17:38;29.85;43.74
34472;DHT22;20710;49.976;19.836;2022-08-05T16:23:40;29.82;43.80
34472;DHT22;20710;49.976;19.836;2022-08-05T16:29:41;29.71;44.02
34472;DHT22;20710;49.976;19.836;2022-08-05T16:35:43;29.58;44.26
34472;DHT22;20710;49.976;19.836;2022-08-05T16:41:44;29.44;44.83
34472;DHT22;20710;49.976;19.836;2022-08-05T16:47:45;29.33;44.85
34472;DHT22;20710;49.976;19.836;2022-08-05T16:53:47;29.26;45.04
34472;DHT22;20710;49.976;19.836;2022-08-05T16:59:50;29.12;45.59
34472;DHT22;20710;49.976;19.836;2022-08-05T17:05:52;29.02;46.62
34472;DHT22;20710;49.976;19.836;2022-08-05T17:11:53;28.84;47.44
34472;DHT22;20710;49.976;19.836;2022-08-05T17:17:54;28.68;48.12
34472;DHT22;20710;49.976;19.836;2022-08-05T17:23:55;28.55;48.90
34472;DHT22;20710;49.976;19.836;2022-08-05T17:29:57;28.41;49.76
34472;DHT22;20710;49.976;19.836;2022-08-05T17:35:58;28.23;50.66
34472;DHT22;20710;49.976;19.836;2022-08-05T17:42:00;28.02;51.75
34472;DHT22;20710;49.976;19.836;2022-08-05T17:48:02;27.82;52.70
34472;DHT22;20710;49.976;19.836;2022-08-05T17:54:05;27.58;53.32
34472;DHT22;20710;49.976;19.836;2022-08-05T18:00:09;27.33;54.05
34472;DHT22;20710;49.976;19.836;2022-08-05T18:06:10;27.10;54.59
34472;DHT22;20710;49.976;19.836;2022-08-05T18:12:11;26.82;55.47
34472;DHT22;20710;49.976;19.836;2022-08-05T18:18:13;26.55;56.10
34472;DHT22;20710;49.976;19.836;2022-08-05T18:24:14;26.30;56.62
34472;DHT22;20710;49.976;19.836;2022-08-05T18:30:15;26.08;57.28
34472;DHT22;20710;49.976;19.836;2022-08-05T18:36:17;25.81;57.68
34472;DHT22;20710;49.976;19.836;2022-08-05T18:42:18;25.61;58.68
34472;DHT22;20710;49.976;19.836;2022-08-05T18:48:19;25.36;58.82
34472;DHT22;20710;49.976;19.836;2022-08-05T18:54:20;25.10;59.71
34472;DHT22;20710;49.976;19.836;2022-08-05T19:00:23;24.98;59.73
34472;DHT22;20710;49.976;19.836;2022-08-05T19:06:25;24.81;60.35
34472;DHT22;20710;49.976;19.836;2022-08-05T19:12:27;24.67;60.94
34472;DHT22;20710;49.976;19.836;2022-08-05T19:18:31;24.50;61.48
34472;DHT22;20710;49.976;19.836;2022-08-05T19:24:32;24.38;62.20
34472;DHT22;20710;49.976;19.836;2022-08-05T19:30:34;24.19;63.02
34472;DHT22;20710;49.976;19.836;2022-08-05T19:36:35;23.98;63.85
34472;DHT22;20710;49.976;19.836;2022-08-05T19:42:37;23.77;64.62
34472;DHT22;20710;49.976;19.836;2022-08-05T19:48:39;23.61;65.25
34472;DHT22;20710;49.976;19.836;2022-08-05T19:54:41;23.47;65.77
34472;DHT22;20710;49.976;19.836;2022-08-05T20:00:43;23.36;66.44
34472;DHT22;20710;49.976;19.836;2022-08-05T20:06:44;23.22;67.54
34472;DHT22;20710;49.976;19.836;2022-08-05T20:12:47;22.99;68.15
34472;DHT22;20710;49.976;19.836;2022-08-05T20:18:48;22.84;68.85
34472;DHT22;20710;49.976;19.836;2022-08-05T20:24:50;22.66;69.35
34472;DHT22;20710;49.976;19.836;2022-08-05T20:30:51;22.59;69.81
34472;DHT22;20710;49.976;19.836;2022-08-05T20:36:52;22.46;70.70
34472;DHT22;20710;49.976;19.836;2022-08-05T20:42:53;22.30;70.99
34472;DHT22;20710;49.976;19.836;2022-08-05T20:48:55;22.23;71.79
34472;DHT22;20710;49.976;19.836;2022-08-05T20:54:56;22.07;72.75
34472;DHT22;20710;49.976;19.836;2022-08-05T21:00:58;21.95;72.59
34472;DHT22;20710;49.976;19.836;2022-08-05T21:06:59;21.84;72.70
34472;DHT22;20710;49.976;19.836;2022-08-05T21:13:00;21.77;73.30
34472;DHT22;20710;49.976;19.836;2022-08-05T21:19:02;21.74;73.55
34472;DHT22;20710;49.976;19.836;2022-08-05T21:25:04;21.61;73.62
34472;DHT22;20710;49.976;19.836;2022-08-05T21:31:06;21.64;73.60
34472;DHT22;20710;49.976;19.836;2022-08-05T21:37:07;21.56;74.49
34472;DHT22;20710;49.976;19.836;2022-08-05T21:43:11;21.42;74.59
34472;DHT22;20710;49.976;19.836;2022-08-05T21:49:12;21.33;74.99
34472;DHT22;20710;49.976;19.836;2022-08-05T21:55:14;21.12;75.54
34472;DHT22;20710;49.976;19.836;2022-08-05T22:01:17;20.99;75.62
34472;DHT22;20710;49.976;19.836;2022-08-05T22:07:18;20.92;76.30
34472;DHT22;20710;49.976;19.836;2022-08-05T22:13:21;20.70;76.77
34472;DHT22;20710;49.976;19.836;2022-08-05T22:19:22;20.53;76.89
34472;DHT22;20710;49.976;19.836;2022-08-05T22:25:23;20.44;77.33
34472;DHT22;20710;49.976;19.836;2022-08-05T22:31:44;20.39;77.57
34472;DHT22;20710;49.976;19.836;2022-08-05T22:37:45;20.26;77.96
34472;DHT22;20710;49.976;19.836;2022-08-05T22:43:46;20.12;78.42
34472;DHT22;20710;49.976;19.836;2022-08-05T22:49:48;19.95;78.66
34472;DHT22;20710;49.976;19.836;2022-08-05T22:55:49;19.85;78.67
34472;DHT22;20710;49.976;19.836;2022-08-05T23:01:53;19.91;78.22
34472;DHT22;20710;49.976;19.836;2022-08-05T23:07:54;19.97;78.85
34472;DHT22;20710;49.976;19.836;2022-08-05T23:13:55;19.84;78.85
34472;DHT22;20710;49.976;19.836;2022-08-05T23:19:58;19.71;79.24
34472;DHT22;20710;49.976;19.836;2022-08-05T23:26:00;19.59;79.67
34472;DHT22;20710;49.976;19.836;2022-08-05T23:32:02;19.48;79.84
34472;DHT22;20710;49.976;19.836;2022-08-05T23:38:04;19.46;79.79
34472;DHT22;20710;49.976;19.836;2022-08-05T23:44:05;19.39;80.21
34472;DHT22;20710;49.976;19.836;2022-08-05T23:50:07;19.31;80.46
34472;DHT22;20710;49.976;19.836;2022-08-05T23:56:08;19.22;80.47
